createdAt,value
2022-12-25T00:00:56.791Z,7.10
2022-12-25T00:03:23.577Z,7.11
2022-12-25T00:05:50.323Z,7.12
2022-12-25T00:08:17.883Z,7.12
2022-12-25T00:10:45.596Z,7.14
2022-12-25T00:13:12.237Z,7.15
2022-12-25T00:15:42.006Z,7.17
2022-12-25T00:18:08.625Z,7.18
2022-12-25T00:20:35.157Z,7.19
2022-12-25T00:23:01.594Z,7.20
2022-12-25T00:25:28.169Z,7.21
2022-12-25T00:27:54.685Z,7.22
2022-12-25T00:30:21.200Z,7.23
2022-12-25T00:32:47.641Z,7.25
2022-12-25T00:35:14.213Z,7.27
2022-12-25T00:37:40.810Z,7.27
2022-12-25T00:40:07.977Z,7.27
2022-12-25T00:42:34.548Z,7.30
2022-12-25T00:45:01.579Z,7.31
2022-12-25T00:47:28.307Z,7.31
2022-12-25T00:49:55.416Z,7.33
2022-12-25T00:52:21.885Z,7.35
2022-12-25T00:54:48.361Z,7.36
2022-12-25T00:57:14.943Z,7.37
2022-12-25T00:59:41.433Z,7.38
2022-12-25T01:02:26.525Z,7.40
2022-12-25T01:04:57.371Z,7.43
2022-12-25T01:07:26.452Z,7.45
2022-12-25T01:10:11.459Z,7.47
2022-12-25T01:12:41.608Z,7.48
2022-12-25T01:15:10.197Z,7.48
2022-12-25T01:17:36.773Z,7.52
2022-12-25T01:20:04.516Z,7.53
2022-12-25T01:22:31.303Z,7.53
2022-12-25T01:24:57.995Z,7.54
2022-12-25T01:27:24.566Z,7.55
2022-12-25T01:29:51.146Z,7.55
2022-12-25T01:32:18.377Z,7.57
2022-12-25T01:34:48.138Z,7.57
2022-12-25T01:37:17.114Z,7.59
2022-12-25T01:39:43.743Z,7.61
2022-12-25T01:42:21.254Z,7.62
2022-12-25T01:44:47.716Z,7.61
2022-12-25T01:47:16.981Z,7.59
2022-12-25T01:49:47.965Z,7.58
2022-12-25T01:52:23.334Z,7.55
2022-12-25T01:54:55.496Z,7.53
2022-12-25T01:57:30.683Z,7.49
2022-12-25T01:59:58.412Z,7.46
2022-12-25T02:02:25.978Z,7.43
2022-12-25T02:05:08.598Z,7.43
2022-12-25T02:07:38.353Z,7.40
2022-12-25T02:10:05.224Z,7.36
2022-12-25T02:12:34.317Z,7.33
2022-12-25T02:15:13.669Z,7.32
2022-12-25T02:17:54.322Z,7.31
2022-12-25T02:20:46.854Z,7.32
2022-12-25T02:23:31.837Z,7.29
2022-12-25T02:26:16.868Z,7.25
2022-12-25T02:29:00.755Z,7.24
2022-12-25T02:31:46.176Z,7.21
2022-12-25T02:34:37.550Z,7.18
2022-12-25T02:37:19.294Z,7.15
2022-12-25T02:39:57.897Z,7.18
2022-12-25T02:42:48.744Z,7.20
2022-12-25T02:45:40.109Z,7.19
2022-12-25T02:48:25.987Z,7.18
2022-12-25T02:51:12.582Z,7.17
2022-12-25T02:53:59.139Z,7.16
2022-12-25T02:56:48.039Z,7.14
2022-12-25T02:59:35.253Z,7.17
2022-12-25T03:02:22.440Z,7.17
2022-12-25T03:05:09.873Z,7.18
2022-12-25T03:07:40.959Z,7.20
2022-12-25T03:10:28.186Z,7.19
2022-12-25T03:13:06.190Z,7.19
2022-12-25T03:15:52.644Z,7.18
2022-12-25T03:18:24.483Z,7.20
2022-12-25T03:21:10.624Z,7.20
2022-12-25T03:23:57.971Z,7.22
2022-12-25T03:26:46.499Z,7.27
2022-12-25T03:29:35.818Z,7.28
2022-12-25T03:32:21.745Z,7.30
2022-12-25T03:35:25.700Z,7.37
2022-12-25T03:38:16.976Z,7.41
2022-12-25T03:41:15.490Z,7.46
2022-12-25T03:44:06.758Z,7.50
2022-12-25T03:46:55.721Z,7.50
2022-12-25T03:49:45.412Z,7.48
2022-12-25T03:52:33.604Z,7.48
2022-12-25T03:55:22.280Z,7.51
2022-12-25T03:58:07.537Z,7.55
2022-12-25T04:00:52.792Z,7.60
2022-12-25T04:03:38.023Z,7.63
2022-12-25T04:06:23.169Z,7.65
2022-12-25T04:09:08.410Z,7.65
2022-12-25T04:11:57.324Z,7.65
2022-12-25T04:14:45.661Z,7.65
2022-12-25T04:17:30.677Z,7.64
2022-12-25T04:20:15.465Z,7.59
2022-12-25T04:23:00.795Z,7.57
2022-12-25T04:25:45.863Z,7.57
2022-12-25T04:28:30.852Z,7.57
2022-12-25T04:31:19.428Z,7.55
2022-12-25T04:34:04.704Z,7.54
2022-12-25T04:36:31.391Z,7.53
2022-12-25T04:38:57.920Z,7.52
2022-12-25T04:41:24.465Z,7.48
2022-12-25T04:43:50.920Z,7.47
2022-12-25T04:46:17.644Z,7.46
2022-12-25T04:48:44.593Z,7.47
2022-12-25T04:51:22.448Z,7.46
2022-12-25T04:53:50.574Z,7.44
2022-12-25T07:07:12.539Z,7.64
2022-12-25T07:09:39.617Z,7.64
2022-12-25T07:12:15.238Z,7.66
2022-12-25T07:14:41.871Z,7.68
2022-12-25T07:17:08.369Z,7.68
2022-12-25T07:19:39.663Z,7.69
2022-12-25T07:22:09.544Z,7.70
2022-12-25T07:24:36.123Z,7.72
2022-12-25T07:27:02.748Z,7.72
2022-12-25T07:29:29.244Z,7.73
2022-12-25T07:31:55.900Z,7.73
2022-12-25T07:34:23.934Z,7.74
2022-12-25T07:36:54.732Z,7.75
2022-12-25T07:39:21.217Z,7.75
2022-12-25T07:41:47.803Z,7.76
2022-12-25T07:44:14.996Z,7.76
2022-12-25T07:46:41.578Z,7.78
2022-12-25T07:49:08.622Z,7.78
2022-12-25T07:51:35.117Z,7.79
2022-12-25T07:54:01.854Z,7.80
2022-12-25T07:56:28.449Z,7.81
2022-12-25T07:58:55.102Z,7.82
2022-12-25T08:01:26.862Z,7.84
2022-12-25T08:04:01.912Z,7.85
2022-12-25T08:06:34.107Z,7.85
2022-12-25T08:09:18.603Z,7.87
2022-12-25T08:11:49.521Z,7.87
2022-12-25T08:14:16.011Z,7.86
2022-12-25T08:16:42.787Z,7.88
2022-12-25T08:19:09.687Z,7.88
2022-12-25T08:21:36.719Z,7.88
2022-12-25T08:24:03.573Z,7.89
2022-12-25T08:26:30.409Z,7.88
2022-12-25T08:28:57.405Z,7.90
2022-12-25T08:31:27.750Z,7.92
2022-12-25T08:33:57.418Z,7.91
2022-12-25T08:36:24.682Z,7.92
2022-12-25T08:38:52.080Z,7.93
2022-12-25T08:41:20.356Z,7.93
2022-12-25T08:43:46.913Z,7.94
2022-12-25T08:46:13.643Z,7.93
2022-12-25T08:48:44.989Z,7.96
2022-12-25T08:51:19.319Z,8.00
2022-12-25T08:53:47.767Z,7.97
2022-12-25T08:56:15.816Z,8.00
2022-12-25T08:58:43.199Z,8.01
2022-12-25T09:01:11.018Z,8.02
2022-12-25T09:03:37.816Z,8.03
2022-12-25T09:06:07.012Z,8.03
2022-12-25T09:08:34.474Z,8.04
2022-12-25T09:11:03.004Z,8.05
2022-12-25T09:13:30.106Z,8.07
2022-12-25T09:15:56.996Z,8.07
2022-12-25T09:18:23.516Z,8.07
2022-12-25T09:21:04.978Z,8.12
2022-12-25T09:23:32.713Z,8.10
2022-12-25T09:26:01.191Z,8.13
2022-12-25T09:28:28.230Z,8.13
2022-12-25T09:30:55.467Z,8.14
2022-12-25T09:33:22.864Z,8.13
2022-12-25T09:35:55.133Z,8.15
2022-12-25T09:38:21.659Z,8.15
2022-12-25T09:40:48.276Z,8.16
2022-12-25T09:43:21.316Z,8.18
2022-12-25T09:45:47.862Z,8.17
2022-12-25T09:48:16.350Z,8.18
2022-12-25T09:50:56.169Z,8.18
2022-12-25T09:53:28.521Z,8.20
2022-12-25T09:56:10.320Z,8.23
2022-12-25T09:58:36.800Z,8.22
2022-12-25T10:01:12.421Z,8.24
2022-12-25T10:04:01.785Z,8.25
2022-12-25T10:06:47.561Z,8.26
2022-12-25T10:09:36.027Z,8.26
2022-12-25T10:12:42.652Z,8.27
2022-12-25T10:15:39.244Z,8.27
2022-12-25T10:18:30.154Z,8.27
2022-12-25T10:20:59.320Z,8.25
2022-12-25T10:23:30.614Z,8.29
2022-12-25T10:25:57.228Z,8.27
2022-12-25T10:28:29.891Z,8.28
2022-12-25T10:31:01.289Z,8.29
2022-12-25T10:33:28.416Z,8.28
2022-12-25T10:35:54.971Z,8.29
2022-12-25T10:38:21.581Z,8.28
2022-12-25T10:41:19.031Z,8.31
2022-12-25T10:43:51.954Z,8.31
2022-12-25T10:46:20.957Z,8.31
2022-12-25T10:48:56.013Z,8.33
2022-12-25T10:51:37.558Z,8.33
2022-12-25T10:54:17.883Z,8.32
2022-12-25T10:56:58.929Z,8.32
2022-12-25T10:59:27.908Z,8.32
2022-12-25T11:01:56.375Z,8.32
2022-12-25T11:04:28.576Z,8.35
2022-12-25T11:07:05.740Z,8.37
2022-12-25T11:09:33.357Z,8.38
2022-12-25T11:12:00.791Z,8.40
2022-12-25T11:14:29.211Z,8.42
2022-12-25T11:16:56.142Z,8.44
2022-12-25T11:19:25.670Z,8.43
2022-12-25T11:21:54.948Z,8.44
2022-12-25T11:24:25.127Z,8.44
2022-12-25T11:26:57.526Z,8.46
2022-12-25T11:29:47.012Z,8.47
2022-12-25T11:32:22.658Z,8.48
2022-12-25T11:34:50.847Z,8.49
2022-12-25T11:37:28.411Z,8.52
2022-12-25T11:39:54.958Z,8.52
2022-12-25T11:42:32.541Z,8.59
2022-12-25T11:45:25.896Z,8.65
2022-12-25T11:48:04.879Z,8.66
2022-12-25T11:50:46.533Z,8.69
2022-12-25T11:53:40.027Z,8.72
2022-12-25T11:56:10.212Z,8.68
2022-12-25T11:58:41.950Z,8.68
2022-12-25T12:01:22.425Z,8.69
2022-12-25T12:03:49.323Z,8.66
2022-12-25T12:06:18.368Z,8.67
2022-12-25T12:08:50.870Z,8.67
2022-12-25T12:11:37.336Z,8.66
2022-12-25T12:14:03.674Z,8.64
2022-12-25T12:16:30.808Z,8.64
2022-12-25T12:18:57.558Z,8.63
2022-12-25T12:21:27.533Z,8.65
2022-12-25T12:24:04.484Z,8.64
2022-12-25T12:26:37.885Z,8.65
2022-12-25T12:29:06.926Z,8.66
2022-12-25T12:31:40.426Z,8.69
2022-12-25T12:34:17.459Z,8.70
2022-12-25T12:36:44.149Z,8.71
2022-12-25T12:39:23.398Z,8.73
2022-12-25T12:41:50.209Z,8.70
2022-12-25T12:44:17.913Z,8.69
2022-12-25T12:46:56.253Z,8.70
2022-12-25T12:49:32.717Z,8.67
2022-12-25T12:52:23.086Z,8.65
2022-12-25T12:54:59.194Z,8.64
2022-12-25T12:57:30.066Z,8.63
2022-12-25T12:59:59.945Z,8.62
2022-12-25T13:02:51.598Z,8.62
2022-12-25T13:05:43.534Z,8.60
2022-12-25T13:08:35.641Z,8.61
2022-12-25T13:11:31.165Z,8.60
2022-12-25T13:14:01.462Z,8.58
2022-12-25T13:16:38.807Z,8.59
2022-12-25T13:19:08.782Z,8.58
2022-12-25T13:21:35.735Z,8.57
2022-12-25T13:24:21.331Z,8.60
2022-12-25T13:26:47.747Z,8.57
2022-12-25T13:29:30.908Z,8.59
2022-12-25T13:31:59.427Z,8.55
2022-12-25T13:34:29.535Z,8.57
2022-12-25T13:36:56.193Z,8.54
2022-12-25T13:39:25.077Z,8.53
2022-12-25T13:42:05.809Z,8.53
2022-12-25T13:44:43.799Z,8.53
2022-12-25T13:47:20.471Z,8.52
2022-12-25T13:49:49.024Z,8.50
2022-12-25T13:52:38.044Z,8.50
2022-12-25T13:55:14.966Z,8.52
2022-12-25T13:57:59.822Z,8.52
2022-12-25T14:00:59.800Z,8.52
2022-12-25T14:03:40.511Z,8.51
2022-12-25T14:06:17.844Z,8.50
2022-12-25T14:08:45.035Z,8.51
2022-12-25T14:11:15.534Z,8.51
2022-12-25T14:13:45.456Z,8.51
2022-12-25T14:16:17.129Z,8.53
2022-12-25T14:19:27.073Z,8.56
2022-12-25T14:21:59.990Z,8.54
2022-12-25T14:24:28.280Z,8.53
2022-12-25T14:27:00.529Z,8.54
2022-12-25T14:29:37.622Z,8.54
2022-12-25T14:32:06.955Z,8.54
2022-12-25T14:34:34.264Z,8.53
2022-12-25T14:37:03.291Z,8.55
2022-12-25T14:39:29.646Z,8.55
2022-12-25T14:41:56.528Z,8.54
2022-12-25T14:44:36.848Z,8.56
2022-12-25T14:47:17.942Z,8.57
2022-12-25T14:49:44.999Z,8.56
2022-12-25T14:52:28.138Z,8.57
2022-12-25T14:55:01.233Z,8.56
2022-12-25T14:57:33.716Z,8.57
2022-12-25T15:00:18.809Z,8.57
2022-12-25T15:02:47.134Z,8.56
2022-12-25T15:05:38.048Z,8.59
2022-12-25T15:08:04.553Z,8.55
2022-12-25T15:13:20.752Z,8.55
2022-12-25T15:15:54.260Z,8.57
2022-12-25T15:18:23.408Z,8.56
2022-12-25T15:20:54.251Z,8.55
2022-12-25T15:23:21.448Z,8.55
2022-12-25T15:25:48.446Z,8.54
2022-12-25T15:28:14.819Z,8.53
2022-12-25T15:30:41.320Z,8.54
2022-12-25T15:33:13.184Z,8.54
2022-12-25T15:35:39.774Z,8.54
2022-12-25T15:38:06.318Z,8.53
2022-12-25T15:40:32.794Z,8.53
2022-12-25T15:42:59.852Z,8.54
2022-12-25T15:45:30.305Z,8.54
2022-12-25T15:47:57.472Z,8.54
2022-12-25T15:50:24.028Z,8.53
2022-12-25T15:52:50.887Z,8.54
2022-12-25T15:55:17.578Z,8.53
2022-12-25T15:57:47.473Z,8.53
2022-12-25T16:00:22.526Z,8.54
2022-12-25T16:02:50.383Z,8.54
2022-12-25T16:05:17.040Z,8.53
2022-12-25T16:07:43.662Z,8.54
2022-12-25T16:10:19.869Z,8.55
2022-12-25T16:12:47.077Z,8.53
2022-12-25T16:15:15.381Z,8.53
2022-12-25T16:17:41.919Z,8.54
2022-12-25T16:20:08.932Z,8.53
2022-12-25T16:22:39.951Z,8.52
2022-12-25T16:25:15.647Z,8.54
2022-12-25T16:27:42.785Z,8.54
2022-12-25T16:30:10.863Z,8.54
2022-12-25T16:32:37.394Z,8.54
2022-12-25T16:35:04.782Z,8.54
2022-12-25T16:37:31.289Z,8.54
2022-12-25T16:39:57.672Z,8.54
2022-12-25T16:42:24.147Z,8.54
2022-12-25T16:44:50.538Z,8.55
2022-12-25T16:47:17.564Z,8.54
2022-12-25T16:49:44.183Z,8.52
2022-12-25T16:52:10.619Z,8.53
2022-12-25T16:54:37.015Z,8.53
2022-12-25T17:08:54.321Z,8.57
2022-12-25T17:11:48.514Z,8.54
2022-12-25T17:19:20.543Z,8.56
2022-12-25T17:29:52.041Z,8.55
2022-12-25T17:32:39.496Z,8.55
2022-12-25T17:41:52.262Z,8.53
2022-12-25T17:53:58.819Z,8.54
2022-12-25T18:00:03.105Z,8.51
2022-12-25T18:17:04.591Z,8.54
2022-12-25T18:20:03.864Z,8.55
2022-12-25T18:43:04.337Z,8.54
2022-12-25T18:46:31.755Z,8.55
2022-12-25T18:53:50.708Z,8.56
2022-12-25T18:57:07.542Z,8.57
2022-12-25T18:59:33.898Z,8.53
2022-12-25T19:02:00.393Z,8.50
2022-12-25T19:04:27.018Z,8.52
2022-12-25T19:06:53.373Z,8.50
2022-12-25T19:09:20.303Z,8.51
2022-12-25T19:11:47.073Z,8.51
2022-12-25T19:14:14.058Z,8.51
2022-12-25T19:28:14.740Z,8.53
2022-12-25T20:57:09.765Z,8.50
2022-12-25T20:59:38.557Z,8.50
2022-12-25T21:02:06.567Z,8.50
2022-12-25T21:04:33.188Z,8.50
2022-12-25T21:07:00.338Z,8.52
2022-12-25T21:09:26.766Z,8.52
2022-12-25T21:11:53.121Z,8.53
2022-12-25T21:14:19.593Z,8.52
2022-12-25T21:16:46.121Z,8.53
2022-12-25T21:19:12.555Z,8.52
2022-12-25T21:21:43.088Z,8.53
2022-12-25T21:24:10.412Z,8.53
2022-12-25T21:26:38.311Z,8.53
2022-12-25T21:29:06.719Z,8.54
2022-12-25T21:31:56.979Z,8.53
2022-12-25T21:34:23.639Z,8.53
2022-12-25T21:36:50.084Z,8.54
2022-12-25T21:39:16.806Z,8.54
2022-12-25T21:41:43.351Z,8.54
2022-12-25T21:44:10.530Z,8.54
2022-12-25T21:46:37.079Z,8.55
2022-12-25T21:49:03.578Z,8.55
2022-12-25T21:51:51.050Z,8.55
2022-12-25T21:54:19.478Z,8.55
2022-12-25T21:56:47.579Z,8.55
2022-12-25T21:59:21.443Z,8.56
2022-12-25T22:01:49.956Z,8.57
2022-12-25T22:04:18.981Z,8.56
2022-12-25T22:07:05.564Z,8.56
2022-12-25T22:09:33.032Z,8.57
2022-12-25T22:12:18.967Z,8.59
2022-12-25T22:14:57.050Z,8.58
2022-12-25T22:17:50.087Z,8.60
2022-12-25T22:20:21.248Z,8.60
2022-12-25T22:22:48.954Z,8.59
2022-12-25T22:25:16.628Z,8.60
2022-12-25T22:27:44.920Z,8.61
2022-12-25T22:30:18.493Z,8.61
2022-12-25T22:32:46.912Z,8.62
2022-12-25T22:35:17.573Z,8.62
2022-12-25T22:37:45.604Z,8.64
2022-12-25T22:40:16.058Z,8.63
2022-12-25T22:42:42.923Z,8.63
2022-12-25T22:45:10.995Z,8.63
2022-12-25T22:47:39.026Z,8.65
2022-12-25T22:50:07.283Z,8.65
2022-12-25T22:52:34.775Z,8.66
2022-12-25T22:55:02.735Z,8.65
2022-12-25T22:57:29.611Z,8.66
2022-12-25T22:59:56.176Z,8.66
2022-12-25T23:02:22.913Z,8.67
2022-12-25T23:04:49.581Z,8.68
2022-12-25T23:07:16.236Z,8.67
2022-12-25T23:09:43.864Z,8.68
2022-12-25T23:12:30.804Z,8.67
2022-12-25T23:14:57.480Z,8.68
2022-12-25T23:17:42.848Z,8.68
2022-12-25T23:20:28.633Z,8.69
2022-12-25T23:23:13.501Z,8.68
2022-12-25T23:25:58.253Z,8.68
2022-12-25T23:28:43.311Z,8.68
2022-12-25T23:31:09.786Z,8.69
2022-12-25T23:33:36.388Z,8.69
2022-12-25T23:36:02.889Z,8.70
2022-12-25T23:38:29.316Z,8.71
2022-12-25T23:40:57.058Z,8.70
2022-12-25T23:43:23.626Z,8.70
2022-12-25T23:45:50.062Z,8.70
2022-12-25T23:48:16.446Z,8.71
2022-12-25T23:50:43.176Z,8.71
2022-12-25T23:53:10.536Z,8.72
2022-12-25T23:55:37.073Z,8.72
2022-12-25T23:58:03.990Z,8.73
